createdAt,value
2022-08-10T00:00:39.622Z,101306.66
2022-08-10T00:05:43.883Z,101311.84
2022-08-10T00:10:56.589Z,101310.66
2022-08-10T00:15:58.078Z,101310.81
2022-08-10T00:20:59.599Z,101309.97
2022-08-10T00:26:01.681Z,101308.44
2022-08-10T00:31:03.142Z,101301.28
2022-08-10T00:36:04.744Z,101304.34
2022-08-10T00:41:06.230Z,101304.72
2022-08-10T00:46:07.658Z,101300.88
2022-08-10T00:51:09.114Z,101297.75
2022-08-10T00:57:14.591Z,101298.72
2022-08-10T01:02:09.723Z,101299.34
2022-08-10T01:07:16.303Z,101295.81
2022-08-10T01:12:47.250Z,101301.88
2022-08-10T01:17:54.319Z,101290.09
2022-08-10T01:23:33.191Z,101295.19
2022-08-10T01:29:20.851Z,101290.00
2022-08-10T01:34:26.187Z,101292.44
2022-08-10T01:39:30.219Z,101288.13
2022-08-10T01:44:43.515Z,101292.69
2022-08-10T01:49:48.554Z,101291.31
2022-08-10T01:54:52.899Z,101296.19
2022-08-10T02:00:02.509Z,101302.91
2022-08-10T02:05:07.450Z,101300.09
2022-08-10T02:10:12.751Z,101307.69
2022-08-10T02:15:16.715Z,101307.44
2022-08-10T02:20:24.371Z,101308.97
2022-08-10T02:25:42.254Z,101298.22
2022-08-10T02:30:46.371Z,101317.88
2022-08-10T02:35:55.301Z,101316.81
2022-08-10T02:42:18.359Z,101319.81
2022-08-10T02:46:46.840Z,101316.56
2022-08-10T02:52:06.465Z,101325.06
2022-08-10T02:57:19.467Z,101321.06
2022-08-10T03:02:30.976Z,101321.91
2022-08-10T03:08:00.144Z,101320.38
2022-08-10T03:13:06.125Z,101320.84
2022-08-10T03:18:09.079Z,101324.53
2022-08-10T03:23:13.991Z,101314.22
2022-08-10T03:28:18.794Z,101320.50
2022-08-10T03:33:24.444Z,101319.75
2022-08-10T03:38:25.888Z,101314.13
2022-08-10T03:43:28.140Z,101323.09
2022-08-10T03:48:38.897Z,101313.25
2022-08-10T03:54:02.759Z,101316.19
2022-08-10T03:59:10.998Z,101318.41
2022-08-10T04:04:15.457Z,101319.25
2022-08-10T04:09:20.961Z,101326.94
2022-08-10T04:14:47.183Z,101324.88
2022-08-10T04:19:48.953Z,101323.09
2022-08-10T04:24:58.302Z,101322.88
2022-08-10T04:29:59.898Z,101329.50
2022-08-10T04:35:03.714Z,101331.88
2022-08-10T04:40:05.974Z,101341.78
2022-08-10T04:45:47.344Z,101340.91
2022-08-10T04:50:48.996Z,101346.56
2022-08-10T04:55:50.501Z,101345.38
2022-08-10T05:00:52.020Z,101348.03
2022-08-10T05:05:53.510Z,101343.03
2022-08-10T05:10:56.995Z,101347.72
2022-08-10T05:15:58.419Z,101347.41
2022-08-10T05:20:59.855Z,101351.91
2022-08-10T05:26:01.281Z,101349.22
2022-08-10T05:31:02.746Z,101349.31
2022-08-10T05:36:06.120Z,101349.38
2022-08-10T05:41:07.591Z,101344.81
2022-08-10T05:46:19.267Z,101344.97
2022-08-10T05:51:22.905Z,101342.69
2022-08-10T05:56:24.399Z,101342.56
2022-08-10T06:01:27.839Z,101333.88
2022-08-10T06:06:32.405Z,101331.13
2022-08-10T06:12:27.015Z,101336.84
2022-08-10T06:16:58.382Z,101342.16
2022-08-10T06:22:01.738Z,101340.66
2022-08-10T06:27:04.365Z,101347.53
2022-08-10T06:32:08.505Z,101339.19
2022-08-10T06:37:12.695Z,101351.25
2022-08-10T06:42:19.797Z,101343.06
2022-08-10T06:47:37.140Z,101345.06
2022-08-10T06:52:40.033Z,101349.13
2022-08-10T06:57:42.559Z,101347.69
2022-08-10T07:02:54.860Z,101344.59
2022-08-10T07:08:00.783Z,101346.66
2022-08-10T07:13:05.105Z,101342.22
2022-08-10T07:18:07.562Z,101325.94
2022-08-10T07:23:57.082Z,101335.63
2022-08-10T07:28:33.494Z,101332.09
2022-08-10T07:33:37.609Z,101332.53
2022-08-10T07:38:40.876Z,101332.06
2022-08-10T07:43:44.771Z,101319.97
2022-08-10T07:48:50.836Z,101326.81
2022-08-10T07:53:55.420Z,101327.38
2022-08-10T07:59:31.574Z,101329.16
2022-08-10T08:04:33.981Z,101323.66
2022-08-10T08:09:36.863Z,101322.13
2022-08-10T08:14:39.340Z,101305.91
2022-08-10T08:19:46.041Z,101317.09
2022-08-10T08:24:58.561Z,101305.91
2022-08-10T08:30:01.769Z,101307.72
2022-08-10T08:35:08.635Z,101312.50
2022-08-10T08:40:24.572Z,101301.06
2022-08-10T08:46:00.576Z,101293.94
2022-08-10T08:52:06.358Z,101292.41
2022-08-10T08:57:46.357Z,101289.31
2022-08-10T09:03:16.145Z,101279.94
2022-08-10T09:08:41.063Z,101271.63
2022-08-10T09:14:04.532Z,101263.72
2022-08-10T09:19:35.669Z,101257.44
2022-08-10T09:24:46.118Z,101258.44
2022-08-10T09:29:54.756Z,101247.50
2022-08-10T09:36:22.101Z,101239.97
2022-08-10T09:41:06.327Z,101234.97
2022-08-10T09:47:09.388Z,101234.44
2022-08-10T09:52:58.783Z,101229.13
2022-08-10T09:58:21.984Z,101234.63
2022-08-10T10:03:46.904Z,101220.00
2022-08-10T10:09:10.912Z,101209.84
2022-08-10T10:14:44.805Z,101209.84
2022-08-10T10:20:03.122Z,101201.84
2022-08-10T10:25:50.395Z,101198.66
2022-08-10T10:31:16.814Z,101197.25
2022-08-10T10:36:20.286Z,101194.38
2022-08-10T10:42:03.756Z,101186.91
2022-08-10T10:47:44.777Z,101191.41
2022-08-10T10:53:01.449Z,101172.19
2022-08-10T10:58:33.438Z,101183.22
2022-08-10T11:03:37.822Z,101168.81
2022-08-10T11:08:52.058Z,101165.69
2022-08-10T11:14:24.714Z,101164.53
2022-08-10T11:20:02.673Z,101155.75
2022-08-10T11:25:14.729Z,101154.31
2022-08-10T11:30:33.554Z,101136.88
2022-08-10T11:35:48.463Z,101148.16
2022-08-10T11:42:05.373Z,101146.66
2022-08-10T11:46:34.591Z,101144.53
2022-08-10T11:51:45.776Z,101130.81
2022-08-10T11:56:50.621Z,101114.47
2022-08-10T12:01:53.287Z,101132.03
2022-08-10T12:06:56.537Z,101111.75
2022-08-10T12:12:02.513Z,101119.22
2022-08-10T12:17:16.334Z,101107.38
2022-08-10T12:22:23.324Z,101097.56
2022-08-10T12:27:33.806Z,101089.97
2022-08-10T12:32:58.676Z,101084.66
2022-08-10T12:38:22.209Z,101092.50
2022-08-10T12:44:05.152Z,101079.44
2022-08-10T12:49:07.322Z,101074.81
2022-08-10T12:54:31.398Z,101074.81
2022-08-10T12:59:43.167Z,101063.25
2022-08-10T13:04:49.295Z,101051.66
2022-08-10T13:09:56.331Z,101063.63
2022-08-10T13:15:45.074Z,101072.09
2022-08-10T13:20:29.882Z,101046.94
2022-08-10T13:25:37.670Z,101035.94
2022-08-10T13:30:41.907Z,101035.19
2022-08-10T13:35:47.581Z,101040.66
2022-08-10T13:40:58.763Z,101026.00
2022-08-10T13:46:02.006Z,101006.25
2022-08-10T13:51:03.653Z,101015.56
2022-08-10T13:56:08.197Z,101006.25
2022-08-10T14:01:17.280Z,101004.97
2022-08-10T14:06:23.464Z,100994.28
2022-08-10T14:11:32.990Z,100992.63
2022-08-10T14:16:41.081Z,100989.09
2022-08-10T14:21:43.426Z,100983.19
2022-08-10T14:26:46.996Z,100985.66
2022-08-10T14:32:00.534Z,100980.00
2022-08-10T14:37:08.893Z,100972.56
2022-08-10T14:42:27.188Z,100960.50
2022-08-10T14:47:53.359Z,100970.78
2022-08-10T14:52:56.292Z,100962.72
2022-08-10T14:58:19.230Z,100961.09
2022-08-10T15:04:02.573Z,100958.59
2022-08-10T15:08:46.864Z,100949.38
2022-08-10T15:14:15.201Z,100954.22
2022-08-10T15:20:00.636Z,100952.88
2022-08-10T15:24:38.320Z,100945.78
2022-08-10T15:29:57.179Z,100936.25
2022-08-10T15:35:01.787Z,100933.84
2022-08-10T15:40:24.618Z,100921.34
2022-08-10T15:45:30.448Z,100911.41
2022-08-10T15:50:39.958Z,100917.31
2022-08-10T15:55:51.640Z,100923.38
2022-08-10T16:01:01.533Z,100908.56
2022-08-10T16:06:04.273Z,100906.75
2022-08-10T16:11:14.110Z,100908.78
2022-08-10T16:16:18.046Z,100913.97
2022-08-10T16:21:24.821Z,100907.47
2022-08-10T16:26:50.053Z,100884.25
2022-08-10T16:31:55.966Z,100881.25
2022-08-10T16:37:14.382Z,100896.25
2022-08-10T16:42:24.978Z,100898.50
2022-08-10T16:47:27.808Z,100891.22
2022-08-10T16:52:31.635Z,100891.50
2022-08-10T16:57:38.806Z,100892.56
2022-08-10T17:02:47.030Z,100882.19
2022-08-10T17:07:50.936Z,100875.06
2022-08-10T17:12:54.979Z,100873.31
2022-08-10T17:18:00.191Z,100879.97
2022-08-10T17:23:04.720Z,100891.84
2022-08-10T17:28:35.047Z,100886.78
2022-08-10T17:33:30.550Z,100878.81
2022-08-10T17:38:36.740Z,100875.47
2022-08-10T17:43:58.177Z,100881.66
2022-08-10T17:49:12.942Z,100877.13
2022-08-10T17:54:23.758Z,100879.31
2022-08-10T17:59:28.368Z,100886.47
2022-08-10T18:04:41.534Z,100874.66
2022-08-10T18:09:54.927Z,100881.91
2022-08-10T18:15:00.023Z,100882.97
2022-08-10T18:20:06.000Z,100879.72
2022-08-10T18:25:09.363Z,100891.00
2022-08-10T18:30:12.412Z,100889.28
2022-08-10T18:35:14.492Z,100889.50
2022-08-10T18:40:17.522Z,100900.84
2022-08-10T18:45:26.245Z,100894.69
2022-08-10T18:50:31.792Z,100909.47
2022-08-10T18:55:46.306Z,100914.91
2022-08-10T19:01:15.863Z,100916.84
2022-08-10T19:06:58.557Z,100924.88
2022-08-10T19:12:37.959Z,100930.38
2022-08-10T19:18:06.021Z,100948.44
2022-08-10T19:23:36.109Z,100942.38
2022-08-10T19:28:46.490Z,100953.03
2022-08-10T19:34:11.546Z,100948.03
2022-08-10T19:39:25.443Z,100960.25
2022-08-10T19:44:42.194Z,100959.53
2022-08-10T19:49:52.112Z,100964.19
2022-08-10T19:55:25.884Z,100953.78
2022-08-10T20:00:46.709Z,100971.19
2022-08-10T20:06:19.594Z,100982.25
2022-08-10T20:11:46.236Z,100983.03
2022-08-10T20:16:48.757Z,100992.31
2022-08-10T20:22:10.699Z,100988.38
2022-08-10T20:27:59.499Z,100985.16
2022-08-10T20:33:23.379Z,100985.44
2022-08-10T20:38:43.499Z,100991.03
2022-08-10T20:44:06.781Z,100993.22
2022-08-10T20:49:27.191Z,100997.38
2022-08-10T20:54:33.848Z,101006.16
2022-08-10T21:00:04.617Z,101010.06
2022-08-10T21:05:06.648Z,101004.69
2022-08-10T21:10:20.043Z,101000.50
2022-08-10T21:15:42.091Z,101010.69
2022-08-10T21:21:37.704Z,101002.16
2022-08-10T21:27:16.564Z,100999.84
2022-08-10T21:32:39.974Z,101001.16
2022-08-10T21:38:00.504Z,101000.78
2022-08-10T21:43:21.324Z,101001.44
2022-08-10T21:49:07.317Z,101010.09
2022-08-10T21:54:26.011Z,101002.69
2022-08-10T21:59:48.460Z,100998.31
2022-08-10T22:04:50.545Z,100991.13
2022-08-10T22:09:55.176Z,100994.00
2022-08-10T22:14:56.841Z,100994.16
2022-08-10T22:20:08.956Z,101002.78
2022-08-10T22:25:33.586Z,101000.50
2022-08-10T22:30:42.973Z,100995.75
2022-08-10T22:36:20.849Z,100989.31
2022-08-10T22:42:02.469Z,100992.94
2022-08-10T22:47:07.708Z,100991.59
2022-08-10T22:52:16.950Z,100991.84
2022-08-10T22:57:19.636Z,100999.09
2022-08-10T23:02:34.023Z,100998.50
2022-08-10T23:07:47.965Z,100995.56
2022-08-10T23:13:12.810Z,101003.13
2022-08-10T23:18:34.960Z,101002.38
2022-08-10T23:23:39.405Z,100994.63
2022-08-10T23:28:58.566Z,101004.41
2022-08-10T23:34:07.158Z,100997.00
2022-08-10T23:39:26.489Z,100995.09
2022-08-10T23:44:35.266Z,101001.34
2022-08-10T23:49:38.490Z,101003.31
2022-08-10T23:54:56.839Z,101006.50
